South Weymouth, Massachusetts
Current Conditions -  °F | °C
As of 7:53 AM on Thursday 27 Nov 2014 (Local Time) from KOWD Reporting Station
Broken Clouds Broken Clouds  
Wind Chill:   Ceiling: 8000
Heat Index:   Visibility: 10mi
Dew Point: -1°   Wind: 3mph
Humidity: 85%   Direction: 300°WNW
Pressure: 29.89"   Gusts: NA
Location:  42.1666°N, 70.9521°W
Report Text: KOWD 271253Z 30003KT 10SM BKN080 02/M01 A2989 RMK AO2 PRESRR SLP121 T00171006 $
Loading
Personal Weather Stations






























Interactive Weather Map New forecast layout! Learn more

10-Day Weather Forecast

Advertisements
Track Severe Weather on mobile